createdAt,value
2017-09-11T00:01:39.740Z,8.80
2017-09-11T00:04:07.178Z,8.80
2017-09-11T00:06:35.383Z,8.70
2017-09-11T00:09:02.815Z,8.70
2017-09-11T00:11:31.030Z,8.70
2017-09-11T00:13:58.468Z,8.70
2017-09-11T00:16:25.913Z,8.70
2017-09-11T00:18:53.336Z,8.60
2017-09-11T00:21:20.781Z,8.60
2017-09-11T00:23:48.220Z,8.50
2017-09-11T00:26:15.668Z,8.50
2017-09-11T00:28:43.109Z,8.50
2017-09-11T00:31:10.545Z,8.50
2017-09-11T00:33:38.744Z,8.60
2017-09-11T00:36:06.192Z,8.60
2017-09-11T00:38:33.630Z,8.70
2017-09-11T00:41:01.833Z,8.60
2017-09-11T00:43:29.270Z,8.60
2017-09-11T00:45:57.472Z,8.50
2017-09-11T00:48:24.912Z,8.50
2017-09-11T00:50:53.103Z,8.60
2017-09-11T00:53:20.544Z,8.60
2017-09-11T00:55:47.970Z,8.60
2017-09-11T00:58:15.420Z,8.60
2017-09-11T01:00:42.851Z,8.50
2017-09-11T01:03:10.288Z,8.50
2017-09-11T01:05:37.720Z,8.50
2017-09-11T01:08:05.154Z,8.40
2017-09-11T01:10:32.592Z,8.50
2017-09-11T01:13:00.036Z,8.50
2017-09-11T01:15:27.473Z,8.50
2017-09-11T01:17:54.911Z,8.50
2017-09-11T01:20:23.100Z,8.40
2017-09-11T01:22:50.556Z,8.40
2017-09-11T01:25:17.996Z,8.40
2017-09-11T01:27:45.411Z,8.40
2017-09-11T01:30:12.850Z,8.40
2017-09-11T01:32:40.284Z,8.30
2017-09-11T01:35:07.719Z,8.30
2017-09-11T01:37:35.152Z,8.40
2017-09-11T01:40:02.601Z,8.40
2017-09-11T01:42:30.794Z,8.40
2017-09-11T01:44:58.235Z,8.30
2017-09-11T01:47:25.674Z,8.30
2017-09-11T01:49:53.115Z,8.30
2017-09-11T01:52:20.557Z,8.40
2017-09-11T01:54:48.757Z,8.40
2017-09-11T01:57:16.197Z,8.40
2017-09-11T01:59:43.631Z,8.50
2017-09-11T02:02:11.834Z,8.60
2017-09-11T02:04:39.263Z,8.60
2017-09-11T02:07:07.467Z,8.70
2017-09-11T02:09:34.901Z,8.70
2017-09-11T02:12:03.109Z,8.70
2017-09-11T02:14:30.536Z,8.70
2017-09-11T02:16:58.763Z,8.70
2017-09-11T02:19:26.192Z,8.70
2017-09-11T02:21:53.629Z,8.70
2017-09-11T02:24:21.829Z,8.70
2017-09-11T02:26:49.269Z,8.70
2017-09-11T02:29:17.468Z,8.60
2017-09-11T02:31:44.914Z,8.60
2017-09-11T02:34:12.336Z,8.60
2017-09-11T02:36:39.800Z,8.60
2017-09-11T02:39:07.999Z,8.60
2017-09-11T02:41:35.427Z,8.60
2017-09-11T02:46:36.848Z,8.70
2017-09-11T02:49:04.283Z,8.70
2017-09-11T02:51:31.726Z,8.60
2017-09-11T02:53:59.933Z,8.50
2017-09-11T02:56:27.380Z,8.50
2017-09-11T02:58:54.816Z,8.50
2017-09-11T03:01:22.253Z,8.40
2017-09-11T03:03:49.684Z,8.30
2017-09-11T03:06:17.122Z,8.30
2017-09-11T03:08:44.556Z,8.30
2017-09-11T03:11:11.988Z,8.30
2017-09-11T03:13:39.428Z,8.30
2017-09-11T03:16:06.860Z,8.20
2017-09-11T03:18:34.304Z,8.20
2017-09-11T03:21:01.756Z,8.10
2017-09-11T03:23:29.193Z,8.10
2017-09-11T03:25:56.620Z,8.10
2017-09-11T03:28:24.060Z,8.10
2017-09-11T03:30:51.490Z,8.10
2017-09-11T03:33:18.919Z,8.10
2017-09-11T03:35:47.113Z,8.10
2017-09-11T03:38:14.565Z,8.10
2017-09-11T03:40:42.757Z,8.00
2017-09-11T03:43:10.185Z,8.00
2017-09-11T03:45:38.392Z,8.10
2017-09-11T03:48:05.824Z,8.00
2017-09-11T03:50:34.019Z,8.10
2017-09-11T03:53:01.456Z,8.00
2017-09-11T03:55:28.887Z,8.10
2017-09-11T03:57:56.319Z,8.10
2017-09-11T04:00:23.755Z,8.10
2017-09-11T04:02:51.184Z,8.10
2017-09-11T04:05:18.619Z,8.20
2017-09-11T04:07:46.045Z,8.20
2017-09-11T04:10:13.487Z,8.20
2017-09-11T04:12:40.926Z,8.30
2017-09-11T04:15:08.359Z,8.30
2017-09-11T04:17:36.560Z,8.50
2017-09-11T04:20:04.000Z,8.50
2017-09-11T04:22:31.427Z,8.50
2017-09-11T04:24:58.867Z,8.50
2017-09-11T04:27:26.307Z,8.40
2017-09-11T04:29:53.745Z,8.40
2017-09-11T04:32:21.939Z,8.20
2017-09-11T04:34:49.383Z,8.20
2017-09-11T04:37:16.810Z,8.20
2017-09-11T04:39:45.044Z,8.10
2017-09-11T04:42:12.479Z,8.10
2017-09-11T04:44:39.912Z,8.20
2017-09-11T04:47:08.124Z,8.20
2017-09-11T04:49:35.560Z,8.10
2017-09-11T04:52:03.760Z,8.20
2017-09-11T04:54:31.192Z,8.20
2017-09-11T04:56:59.391Z,8.20
2017-09-11T04:59:26.826Z,8.20
2017-09-11T05:01:54.268Z,8.30
2017-09-11T05:04:22.469Z,8.40
2017-09-11T05:06:49.907Z,8.30
2017-09-11T05:09:18.113Z,8.50
2017-09-11T05:11:45.564Z,8.50
2017-09-11T05:14:13.006Z,8.50
2017-09-11T05:16:41.201Z,8.80
2017-09-11T05:19:08.636Z,8.70
2017-09-11T05:21:36.828Z,8.90
2017-09-11T05:24:04.262Z,8.90
2017-09-11T05:26:31.694Z,9.00
2017-09-11T05:28:59.124Z,9.10
2017-09-11T05:31:26.555Z,9.10
2017-09-11T05:33:53.987Z,9.20
2017-09-11T05:36:22.180Z,9.30
2017-09-11T05:38:49.625Z,9.30
2017-09-11T05:41:17.820Z,9.50
2017-09-11T05:43:45.247Z,9.50
2017-09-11T05:46:13.443Z,9.70
2017-09-11T05:48:40.888Z,9.70
2017-09-11T05:51:09.080Z,9.90
2017-09-11T05:53:36.512Z,9.90
2017-09-11T05:56:04.720Z,10.00
2017-09-11T05:58:32.154Z,10.10
2017-09-11T06:01:00.366Z,10.30
2017-09-11T06:03:27.864Z,10.20
2017-09-11T06:05:55.316Z,10.40
2017-09-11T06:08:22.748Z,10.40
2017-09-11T06:10:50.183Z,10.50
2017-09-11T06:13:17.612Z,10.60
2017-09-11T06:15:45.834Z,11.00
2017-09-11T06:18:13.251Z,10.90
2017-09-11T06:20:41.457Z,11.70
2017-09-11T06:23:08.889Z,11.70
2017-09-11T06:25:37.099Z,12.30
2017-09-11T06:28:04.542Z,12.30
2017-09-11T06:30:31.979Z,12.60
2017-09-11T06:32:59.421Z,13.00
2017-09-11T06:35:27.635Z,13.50
2017-09-11T06:37:55.071Z,13.50
2017-09-11T06:40:22.515Z,13.50
2017-09-11T06:42:50.715Z,13.50
2017-09-11T06:45:18.163Z,13.50
2017-09-11T06:47:46.354Z,13.30
2017-09-11T06:50:13.815Z,13.30
2017-09-11T06:52:41.259Z,13.30
2017-09-11T06:55:14.319Z,13.60
2017-09-11T06:57:41.769Z,14.10
2017-09-11T07:00:09.216Z,14.60
2017-09-11T07:02:36.663Z,14.90
2017-09-11T07:05:04.108Z,14.90
2017-09-11T07:07:31.561Z,15.10
2017-09-11T07:09:58.995Z,15.20
2017-09-11T07:12:38.249Z,15.10
2017-09-11T07:15:05.680Z,15.10
2017-09-11T07:17:33.124Z,15.00
2017-09-11T07:20:01.341Z,14.90
2017-09-11T07:22:29.559Z,14.70
2017-09-11T07:24:56.994Z,14.70
2017-09-11T07:27:24.432Z,14.60
2017-09-11T07:29:52.654Z,14.30
2017-09-11T07:32:20.112Z,14.30
2017-09-11T07:34:47.559Z,14.20
2017-09-11T07:37:15.005Z,14.10
2017-09-11T07:39:42.447Z,13.90
2017-09-11T07:42:09.895Z,13.80
2017-09-11T07:44:38.108Z,13.70
2017-09-11T07:47:05.573Z,13.70
2017-09-11T07:49:33.025Z,13.80
2017-09-11T07:52:00.460Z,14.50
2017-09-11T07:54:27.900Z,15.20
2017-09-11T07:56:56.112Z,17.00
2017-09-11T07:59:23.552Z,17.00
2017-09-11T08:01:50.984Z,17.00
2017-09-11T08:04:18.434Z,16.90
2017-09-11T08:06:45.866Z,16.50
2017-09-11T08:09:13.309Z,16.50
2017-09-11T08:11:40.743Z,16.40
2017-09-11T08:14:08.177Z,16.10
2017-09-11T08:16:35.611Z,15.80
2017-09-11T08:19:03.818Z,15.50
2017-09-11T08:21:31.261Z,15.50
2017-09-11T08:23:58.707Z,15.60
2017-09-11T08:26:26.913Z,15.80
2017-09-11T08:28:54.351Z,15.70
2017-09-11T08:31:21.783Z,15.80
2017-09-11T08:33:49.223Z,15.70
2017-09-11T08:36:16.657Z,15.80
2017-09-11T08:38:44.112Z,16.10
2017-09-11T08:41:11.551Z,16.30
2017-09-11T08:43:39.016Z,16.30
2017-09-11T08:46:06.447Z,16.40
2017-09-11T08:48:33.892Z,16.40
2017-09-11T08:51:01.333Z,16.50
2017-09-11T08:53:29.527Z,16.60
2017-09-11T08:55:56.967Z,16.60
2017-09-11T08:58:24.419Z,16.50
2017-09-11T09:00:52.628Z,16.20
2017-09-11T09:03:20.084Z,16.20
2017-09-11T09:05:48.279Z,16.40
2017-09-11T09:08:15.727Z,16.40
2017-09-11T09:10:43.168Z,16.80
2017-09-11T09:13:10.611Z,17.00
2017-09-11T09:15:38.068Z,17.40
2017-09-11T09:18:05.500Z,17.70
2017-09-11T09:20:32.936Z,18.10
2017-09-11T09:23:00.376Z,18.40
2017-09-11T09:25:27.826Z,18.70
2017-09-11T09:27:55.267Z,18.80
2017-09-11T09:30:23.481Z,18.50
2017-09-11T09:32:50.914Z,18.50
2017-09-11T09:35:18.355Z,18.30
2017-09-11T09:37:46.551Z,17.90
2017-09-11T09:40:14.009Z,17.90
2017-09-11T09:42:42.220Z,17.60
2017-09-11T09:45:09.645Z,17.50
2017-09-11T09:47:37.093Z,17.40
2017-09-11T09:50:04.528Z,17.30
2017-09-11T09:52:31.973Z,17.40
2017-09-11T09:54:59.409Z,17.60
2017-09-11T09:57:26.843Z,17.80
2017-09-11T09:59:54.284Z,18.00
2017-09-11T10:02:21.728Z,18.20
2017-09-11T10:04:49.933Z,18.70
2017-09-11T10:07:17.366Z,18.60
2017-09-11T10:09:45.572Z,19.20
2017-09-11T10:12:13.019Z,19.20
2017-09-11T10:14:40.451Z,19.40
2017-09-11T10:17:08.670Z,19.70
2017-09-11T10:19:36.113Z,19.70
2017-09-11T10:22:03.551Z,19.70
2017-09-11T10:24:30.994Z,19.90
2017-09-11T10:26:59.200Z,20.40
2017-09-11T10:29:26.636Z,20.30
2017-09-11T10:31:54.843Z,20.20
2017-09-11T10:34:22.274Z,20.20
2017-09-11T10:36:49.715Z,20.20
2017-09-11T10:39:17.143Z,19.80
2017-09-11T10:41:44.580Z,19.60
2017-09-11T10:44:12.025Z,19.40
2017-09-11T10:46:39.464Z,19.10
2017-09-11T10:49:06.939Z,19.00
2017-09-11T10:51:34.376Z,18.90
2017-09-11T10:54:01.850Z,19.00
2017-09-11T10:56:29.251Z,19.30
2017-09-11T10:58:56.695Z,19.40
2017-09-11T11:01:24.132Z,19.50
2017-09-11T11:03:51.566Z,19.60
2017-09-11T11:06:19.003Z,19.80
2017-09-11T11:08:46.443Z,19.80
2017-09-11T11:11:13.879Z,19.70
2017-09-11T11:13:41.324Z,20.00
2017-09-11T11:16:08.761Z,20.40
2017-09-11T11:18:37.112Z,20.60
2017-09-11T11:21:05.317Z,21.40
2017-09-11T11:23:32.760Z,21.30
2017-09-11T11:26:00.966Z,21.60
2017-09-11T11:28:28.409Z,21.60
2017-09-11T11:30:55.847Z,21.70
2017-09-11T11:33:23.285Z,21.40
2017-09-11T11:35:50.719Z,21.10
2017-09-11T11:38:18.159Z,21.00
2017-09-11T11:40:45.603Z,21.00
2017-09-11T11:43:13.041Z,20.90
2017-09-11T11:45:40.474Z,20.80
2017-09-11T11:48:07.916Z,20.60
2017-09-11T11:50:35.364Z,20.40
2017-09-11T11:53:02.797Z,20.40
2017-09-11T11:55:30.241Z,20.50
2017-09-11T11:57:57.680Z,20.70
2017-09-11T12:00:25.890Z,20.80
2017-09-11T12:02:53.327Z,20.80
2017-09-11T12:05:20.767Z,20.70
2017-09-11T12:07:48.201Z,20.80
2017-09-11T12:10:15.643Z,20.90
2017-09-11T12:12:43.077Z,21.00
2017-09-11T12:15:10.515Z,21.20
2017-09-11T12:17:37.955Z,21.20
2017-09-11T12:20:05.392Z,21.20
2017-09-11T12:22:32.824Z,21.20
2017-09-11T12:25:00.284Z,21.20
2017-09-11T12:27:27.731Z,21.30
2017-09-11T12:29:55.156Z,21.30
2017-09-11T12:32:22.596Z,21.20
2017-09-11T12:34:50.029Z,21.10
2017-09-11T12:37:17.471Z,21.10
2017-09-11T12:39:44.912Z,20.80
2017-09-11T12:42:12.356Z,20.80
2017-09-11T12:44:39.795Z,20.70
2017-09-11T12:47:08.000Z,20.50
2017-09-11T12:49:35.428Z,20.50
2017-09-11T12:52:03.632Z,20.40
2017-09-11T12:54:31.066Z,20.40
2017-09-11T12:56:59.271Z,20.60
2017-09-11T12:59:26.716Z,20.50
2017-09-11T13:01:54.164Z,20.80
2017-09-11T13:04:21.591Z,21.00
2017-09-11T13:06:49.028Z,21.20
2017-09-11T13:09:16.464Z,21.00
2017-09-11T13:11:43.904Z,21.10
2017-09-11T13:14:11.335Z,20.90
2017-09-11T13:16:39.547Z,20.80
2017-09-11T13:19:06.979Z,20.80
2017-09-11T13:21:34.423Z,20.70
2017-09-11T13:24:01.862Z,20.50
2017-09-11T13:26:29.291Z,20.30
2017-09-11T13:28:56.742Z,20.30
2017-09-11T13:31:24.170Z,20.20
2017-09-11T13:33:51.612Z,20.20
2017-09-11T13:36:19.048Z,20.10
2017-09-11T13:38:46.485Z,19.90
2017-09-11T13:41:13.923Z,19.80
2017-09-11T13:43:41.359Z,19.60
2017-09-11T13:46:08.801Z,19.50
2017-09-11T13:48:36.236Z,19.50
2017-09-11T13:51:03.674Z,19.30
2017-09-11T13:53:31.120Z,19.40
2017-09-11T13:55:58.576Z,19.80
2017-09-11T13:58:26.008Z,20.20
2017-09-11T14:00:53.448Z,20.20
2017-09-11T14:03:20.877Z,20.40
2017-09-11T14:05:48.304Z,20.50
2017-09-11T14:08:15.744Z,20.70
2017-09-11T14:10:43.183Z,20.80
2017-09-11T14:13:10.623Z,20.80
2017-09-11T14:15:38.073Z,20.90
2017-09-11T14:18:05.515Z,20.80
2017-09-11T14:20:32.942Z,20.80
2017-09-11T14:23:40.746Z,20.80
2017-09-11T14:26:08.183Z,20.70
2017-09-11T14:28:35.630Z,20.70
2017-09-11T14:31:03.836Z,20.20
2017-09-11T14:33:31.283Z,20.20
2017-09-11T14:35:58.721Z,20.20
2017-09-11T14:38:26.936Z,19.80
2017-09-11T14:40:54.386Z,19.80
2017-09-11T14:43:21.807Z,19.80
2017-09-11T14:45:50.017Z,19.60
2017-09-11T14:48:17.455Z,19.50
2017-09-11T14:50:44.899Z,19.40
2017-09-11T14:53:13.107Z,19.20
2017-09-11T14:55:40.544Z,19.20
2017-09-11T14:58:07.988Z,19.20
2017-09-11T15:00:36.196Z,19.10
2017-09-11T15:03:03.632Z,19.10
2017-09-11T15:05:31.839Z,19.10
2017-09-11T15:07:59.275Z,19.10
2017-09-11T15:10:26.711Z,19.10
2017-09-11T15:12:54.924Z,19.10
2017-09-11T15:15:22.369Z,19.10
2017-09-11T15:17:49.802Z,19.00
2017-09-11T15:20:18.012Z,18.80
2017-09-11T15:22:45.452Z,18.70
2017-09-11T15:25:12.893Z,18.70
2017-09-11T15:27:41.094Z,18.50
2017-09-11T15:30:08.544Z,18.50
2017-09-11T15:32:35.987Z,18.40
2017-09-11T15:35:04.198Z,18.10
2017-09-11T15:37:31.636Z,18.10
2017-09-11T15:39:59.068Z,17.90
2017-09-11T15:42:26.511Z,17.80
2017-09-11T15:44:53.938Z,17.70
2017-09-11T15:47:21.388Z,17.50
2017-09-11T15:49:48.827Z,17.50
2017-09-11T15:52:17.032Z,17.30
2017-09-11T15:54:44.481Z,17.20
2017-09-11T15:57:11.923Z,17.10
2017-09-11T15:59:39.368Z,17.00
2017-09-11T16:02:07.579Z,16.90
2017-09-11T16:04:35.013Z,16.80
2017-09-11T16:07:02.448Z,16.80
2017-09-11T16:09:30.648Z,16.70
2017-09-11T16:11:58.092Z,16.60
2017-09-11T16:14:25.534Z,16.60
2017-09-11T16:16:52.976Z,16.50
2017-09-11T16:19:20.402Z,16.50
2017-09-11T16:21:47.849Z,16.50
2017-09-11T16:24:15.283Z,16.40
2017-09-11T16:26:42.720Z,16.40
2017-09-11T16:29:10.153Z,16.30
2017-09-11T16:31:37.609Z,16.30
2017-09-11T16:34:05.044Z,16.20
2017-09-11T16:36:32.487Z,16.20
2017-09-11T16:38:59.955Z,16.10
2017-09-11T16:41:27.381Z,16.10
2017-09-11T16:43:55.590Z,16.00
2017-09-11T16:46:23.037Z,16.00
2017-09-11T16:48:50.478Z,16.00
2017-09-11T16:51:17.920Z,15.90
2017-09-11T16:53:46.131Z,15.80
2017-09-11T16:58:47.495Z,15.80
2017-09-11T17:01:14.940Z,15.70
2017-09-11T17:03:42.419Z,15.60
2017-09-11T17:06:09.844Z,15.60
2017-09-11T17:08:38.060Z,15.50
2017-09-11T17:11:05.503Z,15.50
2017-09-11T17:13:32.946Z,15.50
2017-09-11T17:16:00.388Z,15.40
2017-09-11T17:18:28.612Z,15.30
2017-09-11T17:20:56.044Z,15.30
2017-09-11T17:23:23.492Z,15.30
2017-09-11T17:25:50.934Z,15.20
2017-09-11T17:28:19.149Z,15.20
2017-09-11T17:30:46.653Z,15.20
2017-09-11T17:33:14.251Z,15.20
2017-09-11T17:35:41.681Z,15.00
2017-09-11T17:38:09.907Z,15.00
2017-09-11T17:40:37.407Z,15.00
2017-09-11T17:43:04.944Z,14.90
2017-09-11T17:45:32.393Z,14.90
2017-09-11T17:48:00.062Z,14.80
2017-09-11T17:50:28.498Z,14.80
2017-09-11T17:52:56.011Z,14.70
2017-09-11T17:55:23.474Z,14.70
2017-09-11T17:57:50.915Z,14.60
2017-09-11T18:00:18.363Z,14.60
2017-09-11T18:02:45.810Z,14.50
2017-09-11T18:05:13.262Z,14.50
2017-09-11T18:07:40.703Z,14.40
2017-09-11T18:10:08.968Z,14.40
2017-09-11T18:12:36.421Z,14.40
2017-09-11T18:15:03.873Z,14.40
2017-09-11T18:17:31.326Z,14.40
2017-09-11T18:19:58.766Z,14.40
2017-09-11T18:22:26.203Z,14.30
2017-09-11T18:24:53.659Z,14.30
2017-09-11T18:27:21.139Z,14.30
2017-09-11T18:29:48.609Z,14.30
2017-09-11T18:32:16.054Z,14.30
2017-09-11T18:34:43.487Z,14.30
2017-09-11T18:37:10.951Z,14.20
2017-09-11T18:39:38.394Z,14.20
2017-09-11T18:42:05.844Z,14.20
2017-09-11T18:44:33.314Z,14.10
2017-09-11T18:47:00.766Z,14.10
2017-09-11T18:49:28.208Z,14.10
2017-09-11T18:51:55.654Z,14.10
2017-09-11T18:54:23.858Z,14.10
2017-09-11T18:56:51.314Z,14.00
2017-09-11T18:59:18.768Z,14.00
2017-09-11T19:01:46.229Z,14.00
2017-09-11T19:04:13.678Z,14.00
2017-09-11T19:06:41.125Z,14.00
2017-09-11T19:09:09.326Z,13.90
2017-09-11T19:11:36.773Z,13.90
2017-09-11T19:14:04.231Z,13.90
2017-09-11T19:16:31.672Z,13.80
2017-09-11T19:18:59.880Z,13.80
2017-09-11T19:21:27.328Z,13.80
2017-09-11T19:23:54.775Z,13.80
2017-09-11T19:26:22.221Z,13.80
2017-09-11T19:28:51.825Z,13.70
2017-09-11T19:31:19.259Z,13.70
2017-09-11T19:33:46.745Z,13.70
2017-09-11T19:36:14.203Z,13.70
2017-09-11T19:38:41.640Z,13.70
2017-09-11T19:41:09.095Z,13.70
2017-09-11T19:43:36.666Z,13.70
2017-09-11T19:46:04.167Z,13.80
2017-09-11T19:48:31.624Z,13.80
2017-09-11T19:50:59.080Z,13.80
2017-09-11T19:53:26.515Z,13.70
2017-09-11T19:55:53.951Z,13.80
2017-09-11T19:58:21.401Z,13.80
2017-09-11T20:00:48.845Z,13.80
2017-09-11T20:03:16.293Z,13.80
2017-09-11T20:05:44.501Z,13.90
2017-09-11T20:08:11.946Z,13.90
2017-09-11T20:10:39.391Z,13.80
2017-09-11T20:13:06.840Z,13.80
2017-09-11T20:15:34.285Z,13.90
2017-09-11T20:18:01.732Z,13.80
2017-09-11T20:20:29.374Z,13.80
2017-09-11T20:22:57.626Z,13.80
2017-09-11T20:25:25.085Z,13.80
2017-09-11T20:27:52.512Z,13.80
2017-09-11T20:30:19.957Z,13.80
2017-09-11T20:32:47.396Z,13.80
2017-09-11T20:35:14.839Z,13.70
2017-09-11T20:37:42.284Z,13.80
2017-09-11T20:40:09.737Z,13.70
2017-09-11T20:42:37.936Z,13.70
2017-09-11T20:45:05.384Z,13.70
2017-09-11T20:47:32.818Z,13.70
2017-09-11T20:50:00.267Z,13.70
2017-09-11T20:52:28.470Z,13.70
2017-09-11T20:54:55.911Z,13.70
2017-09-11T20:57:23.361Z,13.70
2017-09-11T20:59:50.797Z,13.60
2017-09-11T21:02:18.238Z,13.60
2017-09-11T21:04:45.672Z,13.60
2017-09-11T21:07:13.885Z,13.50
2017-09-11T21:09:41.329Z,13.50
2017-09-11T21:12:08.768Z,13.50
2017-09-11T21:14:36.976Z,13.40
2017-09-11T21:17:04.419Z,13.40
2017-09-11T21:19:31.885Z,13.40
2017-09-11T21:21:59.320Z,13.40
2017-09-11T21:24:27.526Z,13.30
2017-09-11T21:26:54.960Z,13.30
2017-09-11T21:29:22.492Z,13.30
2017-09-11T21:31:49.924Z,13.30
2017-09-11T21:34:18.124Z,13.40
2017-09-11T21:36:45.575Z,13.30
2017-09-11T21:39:13.008Z,13.40
2017-09-11T21:41:41.217Z,13.40
2017-09-11T21:44:08.654Z,13.30
2017-09-11T21:46:36.096Z,13.40
2017-09-11T21:49:03.536Z,13.40
2017-09-11T21:51:30.984Z,13.40
2017-09-11T21:53:58.420Z,13.40
2017-09-11T21:56:26.628Z,13.30
2017-09-11T21:58:54.060Z,13.30
2017-09-11T22:01:22.265Z,13.30
2017-09-11T22:03:49.700Z,13.30
2017-09-11T22:08:51.892Z,13.30
2017-09-11T22:11:19.333Z,13.30
2017-09-11T22:13:47.544Z,13.30
2017-09-11T22:16:14.983Z,13.20
2017-09-11T22:18:42.423Z,13.20
2017-09-11T22:21:10.744Z,13.30
2017-09-11T22:23:38.164Z,13.30
2017-09-11T22:26:06.368Z,13.30
2017-09-11T22:28:33.821Z,13.30
2017-09-11T22:31:01.265Z,13.20
2017-09-11T22:33:28.707Z,13.20
2017-09-11T22:35:56.141Z,13.20
2017-09-11T22:38:23.585Z,13.20
2017-09-11T22:40:51.023Z,13.20
2017-09-11T22:43:18.478Z,13.20
2017-09-11T22:45:45.910Z,13.10
2017-09-11T22:48:13.343Z,13.10
2017-09-11T22:50:40.784Z,13.20
2017-09-11T22:53:08.236Z,13.10
2017-09-11T22:55:35.677Z,13.20
2017-09-11T22:58:03.884Z,13.20
2017-09-11T23:00:31.324Z,13.10
2017-09-11T23:02:58.760Z,13.20
2017-09-11T23:05:26.965Z,13.20
2017-09-11T23:07:54.403Z,13.10
2017-09-11T23:10:22.612Z,13.10
2017-09-11T23:12:50.065Z,13.10
2017-09-11T23:15:17.502Z,13.10
2017-09-11T23:17:45.711Z,13.10
2017-09-11T23:20:13.143Z,13.10
2017-09-11T23:22:40.585Z,13.00
2017-09-11T23:25:08.796Z,13.00
2017-09-11T23:27:36.238Z,13.00
2017-09-11T23:30:03.680Z,13.10
2017-09-11T23:32:31.115Z,13.00
2017-09-11T23:34:58.552Z,12.90
2017-09-11T23:37:25.994Z,13.00
2017-09-11T23:39:54.202Z,12.90
2017-09-11T23:42:21.635Z,12.90
2017-09-11T23:44:49.865Z,12.90
2017-09-11T23:47:17.305Z,12.90
2017-09-11T23:49:44.739Z,12.90
2017-09-11T23:52:12.181Z,12.80
2017-09-11T23:54:40.386Z,12.70
2017-09-11T23:57:07.820Z,12.70
2017-09-11T23:59:36.025Z,12.60
